Montenegro, Brazil
Current Conditions -  °F | °C
As of 9:00 AM on Thursday 18 Dec 2014 (Local Time) from SBCO Reporting Station
Broken Clouds Broken Clouds  
Wind Chill: 23°   Ceiling: 1500
Heat Index: 23°   Visibility: 6mi
Dew Point: 21°   Wind: 6mph
Humidity: 88%   Direction: 270°W
Pressure: 29.85"   Gusts: NA
Location:  29.69°S, 51.46°W
Report Text: SBCO 181100Z 27005KT 9999 FEW011 BKN015 23/21 Q1011
Loading
Personal Weather Stations






























Interactive Weather Map New forecast layout! Learn more

10-Day Weather Forecast

Advertisements
Track Severe Weather on mobile